Time;durP1;ratioP1;P1;durP2;ratioP2;P2;SDS_P1;SDS_P2;PMS_P1;PMS_P2;Temp;Humidity;BMP_temperature;BMP_pressure;BME280_temperature;BME280_humidity;BME280_pressure;Samples;Min_cycle;Max_cycle;Signal;HPM_P1;HPM_P2
2022/04/22 00:00:38;;;;;;;18.53;2.70;;;;;;;15.40;nan;100512.63;4850681;29;20459;-88
2022/04/22 00:03:09;;;;;;;17.40;2.40;;;;;;;15.38;nan;100504.63;4836894;29;20462;-88
2022/04/22 00:05:37;;;;;;;13.27;2.27;;;;;;;15.33;nan;100492.63;4866409;29;20462;-88
2022/04/22 00:08:05;;;;;;;7.20;2.10;;;;;;;15.27;nan;100482.53;4850778;29;20455;-87
2022/04/22 00:10:34;;;;;;;20.27;2.57;;;;;;;15.35;nan;100493.22;4881308;29;20450;-88
2022/04/22 00:13:03;;;;;;;9.57;2.00;;;;;;;15.29;nan;100480.38;4865910;29;20467;-88
2022/04/22 00:15:31;;;;;;;18.17;2.70;;;;;;;15.24;nan;100478.31;4897081;29;20489;-88
2022/04/22 00:17:59;;;;;;;13.57;2.67;;;;;;;15.23;nan;100475.78;4865767;29;20958;-88
2022/04/22 00:20:28;;;;;;;8.93;2.33;;;;;;;15.23;nan;100470.28;4851062;29;20454;-87
2022/04/22 00:22:57;;;;;;;25.93;3.37;;;;;;;15.14;nan;100459.59;4865838;29;20459;-87
2022/04/22 00:25:25;;;;;;;18.33;2.70;;;;;;;15.14;nan;100458.75;4872620;29;20458;-88
2022/04/22 00:27:52;;;;;;;12.67;3.63;;;;;;;15.11;nan;100459.22;4850205;29;20848;-88
2022/04/22 00:30:20;;;;;;;9.70;2.40;;;;;;;15.08;nan;100455.00;4853111;29;20517;-87
2022/04/22 00:32:48;;;;;;;11.40;2.90;;;;;;;15.05;nan;100455.47;4848774;29;20466;-86
2022/04/22 00:35:16;;;;;;;9.33;2.70;;;;;;;15.01;nan;100447.94;4835621;29;20482;-87
2022/04/22 00:37:46;;;;;;;15.47;3.27;;;;;;;14.96;nan;100440.34;4850533;29;20466;-88
2022/04/22 00:40:14;;;;;;;8.10;1.90;;;;;;;14.94;nan;100439.72;4865988;29;20462;-88
2022/04/22 00:42:41;;;;;;;13.17;2.60;;;;;;;14.83;nan;100416.56;4865767;29;20972;-87
2022/04/22 00:45:10;;;;;;;10.30;2.60;;;;;;;14.91;nan;100434.69;4869437;29;20458;-88
2022/04/22 00:47:38;;;;;;;10.60;2.20;;;;;;;14.91;nan;100423.69;4835098;29;20534;-88
2022/04/22 00:50:09;;;;;;;13.97;2.97;;;;;;;14.84;nan;100414.66;4850124;29;20458;-88
2022/04/22 00:52:37;;;;;;;11.00;2.07;;;;;;;14.84;nan;100409.16;4881817;29;20463;-87
2022/04/22 00:55:09;;;;;;;17.20;2.80;;;;;;;14.78;nan;100401.84;4849274;29;20901;-87
2022/04/22 00:57:37;;;;;;;10.97;2.57;;;;;;;14.83;nan;100401.97;4877269;29;20519;-87
2022/04/22 01:00:09;;;;;;;13.50;3.17;;;;;;;14.85;nan;100406.16;4844383;29;20462;-87
2022/04/22 01:02:38;;;;;;;10.73;2.17;;;;;;;14.84;nan;100398.16;4881144;29;20446;-88
2022/04/22 01:10:40;;;;;;;7.93;2.23;;;;;;;14.83;nan;100372.53;4867318;29;20454;-87
2022/04/22 01:13:09;;;;;;;17.50;2.93;;;;;;;14.89;nan;100369.94;4834605;29;20458;-88
2022/04/22 01:15:37;;;;;;;15.30;2.40;;;;;;;14.88;nan;100360.84;4881511;29;20493;-88
2022/04/22 01:18:05;;;;;;;20.60;2.20;;;;;;;14.89;nan;100350.69;4837788;29;20455;-87
2022/04/22 01:20:33;;;;;;;15.73;3.03;;;;;;;14.93;nan;100347.25;4846722;29;20511;-88
2022/04/22 01:23:01;;;;;;;12.03;2.93;;;;;;;14.96;nan;100344.03;4831434;29;20947;-88
2022/04/22 01:25:30;;;;;;;15.77;3.23;;;;;;;15.01;nan;100344.16;4849927;29;20458;-88
2022/04/22 01:27:58;;;;;;;15.87;2.17;;;;;;;15.03;nan;100336.50;4821942;29;20460;-88
2022/04/22 01:30:26;;;;;;;11.53;2.20;;;;;;;15.04;nan;100329.94;4893372;29;20471;-87
2022/04/22 01:32:56;;;;;;;13.60;3.17;;;;;;;15.08;nan;100344.91;4849150;29;20526;-88
2022/04/22 01:35:24;;;;;;;12.80;2.93;;;;;;;15.14;nan;100341.22;4849476;29;20993;-87
2022/04/22 01:37:53;;;;;;;19.17;2.90;;;;;;;15.13;nan;100331.28;4842052;29;20463;-88
2022/04/22 01:40:21;;;;;;;15.33;2.57;;;;;;;15.12;nan;100318.59;4831537;29;20962;-87
2022/04/22 01:42:48;;;;;;;14.17;2.63;;;;;;;15.16;nan;100322.56;4845955;29;20463;-87
2022/04/22 01:45:16;;;;;;;12.00;2.80;;;;;;;15.09;nan;100305.31;4830523;29;20459;-88
2022/04/22 01:47:43;;;;;;;12.93;2.67;;;;;;;15.11;nan;100316.91;4860944;29;20833;-88
2022/04/22 01:50:11;;;;;;;12.07;2.43;;;;;;;15.03;nan;100297.97;4815762;29;20459;-88
2022/04/22 01:52:41;;;;;;;11.03;2.03;;;;;;;15.02;nan;100298.19;4843788;29;20831;-88
2022/04/22 01:55:10;;;;;;;10.13;1.70;;;;;;;14.97;nan;100287.91;4848929;29;20474;-88
2022/04/22 01:57:38;;;;;;;8.80;1.57;;;;;;;14.98;nan;100289.59;4864238;29;20830;-88
2022/04/22 02:00:07;;;;;;;14.07;2.50;;;;;;;14.94;nan;100282.88;4864219;29;20968;-87
2022/04/22 02:02:35;;;;;;;10.00;2.17;;;;;;;14.89;nan;100271.72;4860951;29;20455;-87
2022/04/22 02:05:05;;;;;;;16.40;2.40;;;;;;;14.86;nan;100264.78;4833875;29;20466;-87
2022/04/22 02:07:33;;;;;;;10.60;2.87;;;;;;;14.89;nan;100266.22;4830339;29;20460;-88
2022/04/22 02:10:00;;;;;;;15.93;2.90;;;;;;;14.89;nan;100263.47;4863236;29;20502;-88
2022/04/22 02:12:28;;;;;;;7.63;2.17;;;;;;;14.90;nan;100254.16;4848166;29;20825;-87
2022/04/22 02:14:56;;;;;;;20.00;2.63;;;;;;;14.90;nan;100251.38;4833710;29;20462;-87
2022/04/22 02:17:25;;;;;;;18.30;2.50;;;;;;;14.93;nan;100242.66;4833166;29;20482;-86
2022/04/22 02:19:52;;;;;;;11.80;1.87;;;;;;;14.90;nan;100237.63;4838430;29;20458;-87
2022/04/22 02:22:22;;;;;;;26.80;3.40;;;;;;;14.98;nan;100242.81;4848675;29;20455;-87
2022/04/22 02:24:50;;;;;;;21.20;3.40;;;;;;;14.96;nan;100231.19;4848811;29;20988;-87
2022/04/22 02:30:04;;;;;;;10.20;2.60;;;;;;;14.99;nan;100230.72;4853030;29;20949;-88
2022/04/22 02:32:32;;;;;;;17.83;3.43;;;;;;;14.97;nan;100213.63;4827186;29;20451;-88
2022/04/22 02:34:59;;;;;;;12.03;2.87;;;;;;;15.05;nan;100223.44;4858985;29;20463;-87
2022/04/22 02:37:27;;;;;;;22.03;2.80;;;;;;;15.01;nan;100225.81;4846520;29;20474;-87
2022/04/22 02:39:55;;;;;;;19.47;2.50;;;;;;;15.05;nan;100218.75;4848346;29;20969;-88
2022/04/22 02:48:00;;;;;;;14.67;3.10;;;;;;;15.07;nan;100196.50;4870237;29;20463;-87
2022/04/22 02:50:27;;;;;;;10.13;2.40;;;;;;;15.11;nan;100194.97;4878570;29;20459;-87
2022/04/22 02:52:55;;;;;;;23.30;2.67;;;;;;;15.10;nan;100187.78;4863347;29;20457;-87
2022/04/22 02:55:23;;;;;;;13.03;2.53;;;;;;;15.12;nan;100189.22;4850098;29;20451;-88
2022/04/22 02:57:51;;;;;;;12.63;2.63;;;;;;;15.11;nan;100189.47;4832617;29;20458;-87
2022/04/22 03:00:19;;;;;;;22.27;3.10;;;;;;;15.14;nan;100192.59;4832939;29;20485;-89
2022/04/22 03:02:49;;;;;;;21.10;2.83;;;;;;;15.14;nan;100203.59;4848956;29;20459;-88
2022/04/22 03:05:17;;;;;;;10.13;2.10;;;;;;;15.14;nan;100200.00;4879879;29;20454;-89
2022/04/22 03:07:45;;;;;;;11.20;2.50;;;;;;;15.01;nan;100180.97;4833057;29;20461;-87
2022/04/22 03:10:12;;;;;;;8.73;2.10;;;;;;;14.96;nan;100187.16;4847548;29;20451;-88
2022/04/22 03:12:42;;;;;;;9.83;1.47;;;;;;;14.92;nan;100185.13;4863002;29;20954;-89
2022/04/22 03:15:10;;;;;;;8.57;2.30;;;;;;;14.86;nan;100181.38;4833451;29;20454;-88
2022/04/22 03:17:37;;;;;;;14.20;2.37;;;;;;;14.81;nan;100157.34;4862974;29;20494;-88
2022/04/22 03:20:05;;;;;;;8.73;2.30;;;;;;;14.75;nan;100140.94;4862511;29;20462;-87
2022/04/22 03:22:34;;;;;;;13.37;2.37;;;;;;;14.73;nan;100143.09;4862427;29;20804;-87
2022/04/22 03:25:02;;;;;;;21.20;3.43;;;;;;;14.75;nan;100146.44;4863125;29;20455;-88
2022/04/22 03:27:30;;;;;;;15.83;3.07;;;;;;;14.74;nan;100153.88;4878413;29;20459;-88
2022/04/22 03:29:57;;;;;;;30.80;5.97;;;;;;;14.69;nan;100159.22;4862895;29;20962;-89
2022/04/22 03:32:25;;;;;;;14.07;3.17;;;;;;;14.70;nan;100154.56;4862539;29;20954;-89
2022/04/22 03:34:53;;;;;;;8.97;3.00;;;;;;;14.74;nan;100172.28;4862579;29;20454;-90
2022/04/22 03:37:21;;;;;;;24.10;3.27;;;;;;;14.73;nan;100165.09;4877858;29;20470;-89
2022/04/22 03:39:48;;;;;;;12.40;2.80;;;;;;;14.69;nan;100163.88;4862930;29;20463;-87
2022/04/22 03:42:16;;;;;;;10.23;1.97;;;;;;;14.70;nan;100162.81;4834105;29;20957;-89
2022/04/22 03:44:44;;;;;;;10.80;1.50;;;;;;;14.65;nan;100151.66;4862767;29;20465;-88
2022/04/22 03:47:12;;;;;;;13.00;2.20;;;;;;;14.61;nan;100150.50;4862608;29;20450;-88
2022/04/22 03:49:41;;;;;;;10.57;1.67;;;;;;;14.56;nan;100142.09;4853294;29;20469;-89
2022/04/22 03:52:09;;;;;;;11.40;2.00;;;;;;;14.45;nan;100114.31;4847577;29;20459;-89
2022/04/22 03:54:36;;;;;;;8.00;1.23;;;;;;;14.43;nan;100126.66;4832561;29;20482;-89
2022/04/22 03:59:54;;;;;;;9.63;1.93;;;;;;;14.41;nan;100118.63;4864928;29;20471;-88
2022/04/22 04:02:22;;;;;;;9.30;1.57;;;;;;;14.43;nan;100121.94;4833323;29;20462;-88
2022/04/22 04:04:50;;;;;;;11.23;1.63;;;;;;;14.43;nan;100116.44;4829437;29;20988;-88
2022/04/22 04:07:18;;;;;;;7.03;1.37;;;;;;;14.42;nan;100111.22;4829613;29;20447;-87
2022/04/22 04:18:11;;;;;;;11.63;1.73;;;;;;;14.31;nan;100100.97;4848085;29;20465;-87
2022/04/22 04:23:26;;;;;;;12.57;1.67;;;;;;;14.30;nan;100088.28;4846759;29;20455;-87
2022/04/22 04:25:54;;;;;;;5.67;1.40;;;;;;;14.31;nan;100090.81;4828545;29;20467;-88
2022/04/22 04:28:23;;;;;;;9.30;1.87;;;;;;;14.32;nan;100084.25;4814062;29;20935;-87
2022/04/22 04:30:50;;;;;;;4.73;1.50;;;;;;;14.31;nan;100085.31;4832519;29;20469;-87
2022/04/22 04:33:18;;;;;;;8.73;1.53;;;;;;;14.33;nan;100088.66;4847380;29;20462;-89
2022/04/22 04:35:47;;;;;;;9.47;1.50;;;;;;;14.34;nan;100081.25;4831861;29;20470;-88
2022/04/22 04:38:14;;;;;;;12.60;2.53;;;;;;;14.25;nan;100068.91;4817788;29;20455;-88
2022/04/22 04:40:47;;;;;;;12.57;1.97;;;;;;;14.31;nan;100079.81;4852348;29;20465;-87
2022/04/22 04:43:17;;;;;;;17.90;1.67;;;;;;;14.27;nan;100070.34;4838603;29;20466;-88
2022/04/22 04:45:45;;;;;;;13.37;1.97;;;;;;;14.30;nan;100067.16;4847132;29;20868;-89
2022/04/22 04:48:13;;;;;;;13.33;2.00;;;;;;;14.25;nan;100057.91;4831922;29;20809;-87
2022/04/22 04:50:43;;;;;;;14.60;1.80;;;;;;;14.25;nan;100058.75;4827418;29;20450;-88
2022/04/22 04:53:12;;;;;;;13.00;2.30;;;;;;;14.25;nan;100057.91;4843351;29;20490;-87
2022/04/22 04:55:40;;;;;;;12.77;2.77;;;;;;;14.19;nan;100048.72;4865568;29;20458;-87
2022/04/22 04:58:09;;;;;;;22.70;2.30;;;;;;;14.26;nan;100049.44;4864952;29;20539;-88
2022/04/22 05:00:37;;;;;;;18.93;2.57;;;;;;;14.27;nan;100051.13;4850288;29;20947;-86
2022/04/22 05:03:05;;;;;;;16.03;2.13;;;;;;;14.27;nan;100051.13;4874541;29;20455;-88
2022/04/22 05:05:34;;;;;;;16.07;1.73;;;;;;;14.28;nan;100044.56;4835080;29;20469;-88
2022/04/22 05:08:04;;;;;;;18.20;2.20;;;;;;;14.29;nan;100042.63;4865426;29;20465;-87
2022/04/22 05:10:32;;;;;;;12.43;2.10;;;;;;;14.29;nan;100037.13;4850405;29;20481;-88
2022/04/22 05:13:00;;;;;;;11.93;1.93;;;;;;;14.29;nan;100037.13;4850206;29;20455;-87
2022/04/22 05:15:28;;;;;;;10.20;1.53;;;;;;;14.25;nan;100025.78;4850005;29;20462;-88
2022/04/22 05:17:57;;;;;;;11.97;1.63;;;;;;;14.27;nan;100028.28;4834184;29;20909;-88
2022/04/22 05:20:25;;;;;;;5.20;1.50;;;;;;;14.25;nan;100025.78;4864429;29;20454;-88
2022/04/22 05:22:53;;;;;;;20.27;1.97;;;;;;;14.31;nan;100024.00;4865172;29;20930;-88
2022/04/22 05:25:21;;;;;;;6.50;1.43;;;;;;;14.31;nan;100024.84;4858217;29;20493;-88
2022/04/22 05:27:49;;;;;;;11.57;1.67;;;;;;;14.30;nan;100017.66;4849414;29;20466;-87
2022/04/22 05:33:04;;;;;;;10.40;1.57;;;;;;;14.29;nan;100021.50;4851591;29;20459;-88
2022/04/22 05:35:32;;;;;;;13.83;2.50;;;;;;;14.30;nan;100011.34;4858806;29;20825;-87
2022/04/22 05:38:04;;;;;;;15.63;2.53;;;;;;;14.38;nan;100009.09;4846297;29;20998;-88
2022/04/22 05:40:33;;;;;;;11.47;1.97;;;;;;;14.43;nan;100014.72;4840477;29;20496;-88
2022/04/22 05:43:01;;;;;;;16.37;2.30;;;;;;;14.35;nan;99998.56;4849828;29;23083;-88
2022/04/22 05:45:29;;;;;;;17.27;2.30;;;;;;;14.45;nan;100007.06;4848614;29;20826;-88
2022/04/22 05:47:57;;;;;;;8.17;2.00;;;;;;;14.48;nan;100012.09;4848932;29;20462;-88
2022/04/22 05:50:26;;;;;;;14.97;1.87;;;;;;;14.47;nan;100007.69;4856839;29;20454;-88
2022/04/22 05:52:54;;;;;;;12.23;2.30;;;;;;;14.48;nan;100008.53;4849000;29;20808;-85
2022/04/22 05:55:27;;;;;;;17.00;2.87;;;;;;;14.46;nan;99995.00;4835199;29;20969;-88
2022/04/22 05:57:55;;;;;;;18.00;2.53;;;;;;;14.49;nan;100000.03;4833420;29;20478;-88
2022/04/22 06:00:26;;;;;;;11.80;2.10;;;;;;;14.51;nan;100002.56;4835669;29;20473;-88
2022/04/22 06:02:56;;;;;;;14.70;2.73;;;;;;;14.50;nan;100000.88;4848285;29;20985;-88
2022/04/22 06:05:25;;;;;;;17.97;2.37;;;;;;;14.51;nan;100006.13;4834284;29;20458;-88
2022/04/22 06:10:40;;;;;;;17.67;2.80;;;;;;;14.49;nan;99994.53;4866016;29;20463;-87
2022/04/22 06:13:08;;;;;;;16.03;2.33;;;;;;;14.54;nan;100002.06;4848569;29;20538;-88
2022/04/22 06:15:37;;;;;;;24.23;2.80;;;;;;;14.56;nan;100015.59;4833327;29;20463;-88
2022/04/22 06:18:05;;;;;;;13.93;2.50;;;;;;;14.58;nan;100061.03;4863760;29;20478;-88
2022/04/22 06:20:33;;;;;;;15.80;2.30;;;;;;;14.54;nan;100067.25;4819928;29;20468;-89
2022/04/22 06:23:00;;;;;;;15.17;1.93;;;;;;;14.44;nan;100062.31;4800909;29;20479;-88
2022/04/22 06:25:29;;;;;;;12.97;2.00;;;;;;;14.07;nan;100069.81;4830644;29;20459;-88
2022/04/22 06:27:57;;;;;;;8.90;1.83;;;;;;;13.81;nan;100068.28;4863082;29;20450;-88
2022/04/22 06:30:24;;;;;;;14.63;2.97;;;;;;;13.63;nan;100054.59;4848475;29;20462;-89
2022/04/22 06:32:53;;;;;;;12.83;1.97;;;;;;;13.52;nan;100053.44;4833617;29;20466;-88
2022/04/22 06:35:21;;;;;;;8.33;2.57;;;;;;;13.48;nan;100047.56;4826517;29;20828;-87
2022/04/22 06:37:52;;;;;;;14.57;3.00;;;;;;;13.41;nan;100046.81;4815993;29;20910;-89
2022/04/22 06:45:55;;;;;;;7.20;1.97;;;;;;;13.39;nan;100024.25;4860264;29;20883;-88
2022/04/22 06:48:31;;;;;;;13.50;1.90;;;;;;;13.42;nan;100022.97;4847602;29;20514;-88
2022/04/22 06:51:09;;;;;;;15.33;2.20;;;;;;;13.46;nan;100021.44;4838324;29;20466;-87
2022/04/22 06:53:37;;;;;;;7.97;1.60;;;;;;;13.49;nan;100027.28;4832920;29;20478;-88
2022/04/22 06:56:09;;;;;;;14.83;2.40;;;;;;;13.55;nan;100020.03;4848173;29;20793;-88
2022/04/22 06:58:37;;;;;;;7.13;2.13;;;;;;;13.59;nan;100015.75;4840159;29;20484;-87
2022/04/22 07:01:07;;;;;;;11.33;2.77;;;;;;;13.65;nan;100014.84;4830747;29;20985;-88
2022/04/22 07:03:56;;;;;;;14.37;2.40;;;;;;;13.70;nan;100008.63;4852403;29;20526;-87
2022/04/22 07:06:24;;;;;;;8.03;1.83;;;;;;;13.76;nan;100011.31;4833238;29;20461;-87
2022/04/22 07:08:52;;;;;;;15.73;3.23;;;;;;;13.76;nan;99996.72;4853257;29;20843;-87
2022/04/22 07:11:26;;;;;;;14.20;2.27;;;;;;;13.89;nan;100003.94;4846591;29;20521;-88
2022/04/22 07:13:56;;;;;;;18.57;3.50;;;;;;;13.93;nan;99995.00;4847303;29;20464;-88
2022/04/22 07:16:25;;;;;;;14.97;3.27;;;;;;;13.95;nan;99992.00;4811723;29;20459;-87
2022/04/22 07:18:53;;;;;;;15.27;3.77;;;;;;;14.03;nan;99994.44;4856313;29;20492;-87
2022/04/22 07:21:24;;;;;;;11.83;3.53;;;;;;;14.07;nan;99981.88;4856350;29;20456;-87
2022/04/22 07:23:53;;;;;;;13.20;2.87;;;;;;;14.10;nan;99985.00;4840897;29;20519;-87
2022/04/22 07:26:23;;;;;;;24.00;4.40;;;;;;;14.12;nan;99968.28;4840957;29;20459;-87
2022/04/22 07:28:55;;;;;;;9.80;2.97;;;;;;;14.14;nan;99968.88;4831549;29;20440;-88
2022/04/22 07:31:28;;;;;;;17.60;3.00;;;;;;;14.11;nan;99959.19;4845183;29;20447;-87
2022/04/22 07:33:56;;;;;;;15.80;2.87;;;;;;;14.17;nan;99973.91;4844576;29;20453;-87
2022/04/22 07:36:24;;;;;;;14.63;2.80;;;;;;;14.17;nan;99973.91;4829306;29;20462;-88
2022/04/22 07:38:52;;;;;;;11.07;2.20;;;;;;;14.10;nan;99979.50;4814601;29;20487;-87
2022/04/22 07:41:23;;;;;;;22.77;3.20;;;;;;;14.16;nan;99989.56;4829378;29;20463;-87
2022/04/22 07:46:46;;;;;;;18.73;3.17;;;;;;;14.22;nan;99979.53;4833398;29;20797;-88
2022/04/22 07:49:14;;;;;;;17.80;3.20;;;;;;;14.27;nan;99971.41;4823081;29;20957;-88
2022/04/22 07:51:42;;;;;;;14.20;3.57;;;;;;;14.27;nan;99952.16;4824447;29;20451;-87
2022/04/22 07:54:12;;;;;;;13.23;3.67;;;;;;;14.25;nan;99936.97;4868389;29;20490;-87
2022/04/22 07:56:41;;;;;;;16.00;4.03;;;;;;;14.43;nan;99961.69;4834341;29;20455;-87
2022/04/22 07:59:10;;;;;;;11.50;3.17;;;;;;;14.34;nan;99947.41;4832618;29;20465;-87
2022/04/22 08:01:37;;;;;;;16.97;3.00;;;;;;;14.49;nan;99956.03;4832359;29;20964;-87
2022/04/22 08:04:06;;;;;;;14.77;2.80;;;;;;;14.55;nan;99951.50;4862741;29;20813;-87
2022/04/22 08:06:34;;;;;;;10.97;2.90;;;;;;;14.58;nan;99936.44;4864044;29;20458;-87
2022/04/22 08:09:02;;;;;;;21.50;3.70;;;;;;;14.59;nan;99935.38;4844676;29;20515;-86
2022/04/22 08:11:30;;;;;;;17.87;2.60;;;;;;;14.72;nan;99932.38;4849813;29;20459;-87
2022/04/22 08:13:59;;;;;;;18.57;5.40;;;;;;;14.81;nan;99914.41;4850951;29;20521;-87
2022/04/22 08:16:27;;;;;;;18.03;4.80;;;;;;;14.78;nan;99899.22;4865593;29;20462;-83
2022/04/22 08:18:55;;;;;;;19.20;4.00;;;;;;;14.87;nan;99929.94;4865968;29;20486;-88
2022/04/22 08:21:32;;;;;;;20.80;3.20;;;;;;;14.88;nan;99928.88;4895134;29;20477;-83
2022/04/22 08:24:03;;;;;;;23.27;4.60;;;;;;;14.93;nan;99926.22;4881351;29;20956;-83
2022/04/22 08:26:32;;;;;;;27.07;9.00;;;;;;;14.95;nan;99921.31;4864414;29;20451;-83
2022/04/22 08:29:00;;;;;;;62.73;30.67;;;;;;;14.98;nan;99923.59;4865807;29;20465;-86
2022/04/22 08:31:28;;;;;;;41.93;21.50;;;;;;;15.06;nan;99920.44;4865036;29;20455;-87
2022/04/22 08:33:57;;;;;;;30.83;13.43;;;;;;;15.16;nan;99906.91;4848504;29;20872;-85
2022/04/22 08:36:27;;;;;;;21.17;6.63;;;;;;;15.20;nan;99907.25;4832850;29;20823;-87
2022/04/22 08:38:57;;;;;;;14.93;3.73;;;;;;;15.27;nan;99912.59;4835374;29;20818;-87
2022/04/22 08:41:25;;;;;;;17.90;3.60;;;;;;;15.25;nan;99892.75;4864969;29;20450;-92
2022/04/22 08:43:58;;;;;;;26.57;5.00;;;;;;;15.36;nan;99897.38;4844929;29;20450;-87
2022/04/22 08:52:03;;;;;;;26.77;3.67;;;;;;;15.58;nan;99892.03;4855399;29;21087;-86
2022/04/22 08:54:32;;;;;;;20.20;4.60;;;;;;;15.63;nan;99887.44;4836281;29;20474;-86
2022/04/22 08:57:02;;;;;;;25.00;5.87;;;;;;;15.79;nan;99881.09;4835651;29;20517;-87
2022/04/22 08:59:30;;;;;;;22.70;5.60;;;;;;;15.93;nan;99880.81;4865663;29;20814;-86
2022/04/22 09:01:59;;;;;;;28.63;4.47;;;;;;;16.12;nan;99896.00;4865593;29;20465;-86
2022/04/22 09:04:27;;;;;;;18.67;3.13;;;;;;;16.20;nan;99888.13;4850635;29;20453;-86
2022/04/22 09:06:56;;;;;;;18.10;3.20;;;;;;;16.29;nan;99891.31;4865550;29;20874;-86
2022/04/22 09:09:24;;;;;;;21.93;3.90;;;;;;;16.41;nan;99891.19;4881824;29;20462;-87
2022/04/22 09:12:11;;;;;;;24.53;3.53;;;;;;;16.44;nan;99888.78;4851835;29;20454;-86
2022/04/22 09:14:46;;;;;;;21.70;4.07;;;;;;;16.58;nan;99887.31;4850475;29;20864;-86
2022/04/22 09:17:15;;;;;;;32.43;6.73;;;;;;;16.66;nan;99888.84;4850342;29;20462;-86
2022/04/22 09:19:44;;;;;;;21.30;4.40;;;;;;;16.81;nan;99904.78;4850183;29;20476;-86
2022/04/22 09:22:23;;;;;;;17.23;3.93;;;;;;;16.86;nan;99880.84;4835015;29;20805;-86
2022/04/22 09:24:58;;;;;;;17.20;4.33;;;;;;;17.01;nan;99898.69;4795772;29;20987;-85
2022/04/22 09:27:38;;;;;;;16.47;3.23;;;;;;;17.09;nan;99888.03;4809507;29;20445;-86
2022/04/22 09:30:07;;;;;;;18.63;3.30;;;;;;;17.12;nan;99879.25;4809608;29;20445;-86
2022/04/22 09:32:39;;;;;;;27.13;5.50;;;;;;;17.22;nan;99886.81;4794379;29;20449;-86
2022/04/22 09:35:09;;;;;;;18.70;3.87;;;;;;;17.30;nan;99882.75;4809623;29;20558;-86
2022/04/22 09:43:42;;;;;;;24.70;4.60;;;;;;;17.45;nan;99896.72;4845263;29;20458;-86
2022/04/22 09:46:29;;;;;;;18.70;3.87;;;;;;;17.57;nan;99878.06;4835458;29;20451;-86
2022/04/22 09:49:01;;;;;;;22.53;4.13;;;;;;;17.64;nan;99873.19;4836187;29;20478;-87
2022/04/22 09:51:30;;;;;;;33.67;4.47;;;;;;;17.75;nan;99880.47;4834850;29;20454;-87
2022/04/22 09:54:08;;;;;;;22.07;7.37;;;;;;;17.76;nan;99876.63;4849546;29;20559;-86
2022/04/22 09:56:41;;;;;;;23.57;7.20;;;;;;;17.73;nan;99882.66;4864765;29;20450;-86
2022/04/22 09:59:25;;;;;;;26.37;5.40;;;;;;;17.64;nan;99895.31;4865279;29;21023;-87
2022/04/22 10:01:53;;;;;;;23.30;3.40;;;;;;;17.58;nan;99893.53;4864668;29;21009;-87
2022/04/22 10:04:31;;;;;;;15.23;2.90;;;;;;;17.45;nan;99893.97;4865681;29;20458;-87
2022/04/22 10:07:01;;;;;;;11.77;2.97;;;;;;;17.22;nan;99904.22;4849910;29;20454;-86
2022/04/22 10:09:29;;;;;;;17.20;2.90;;;;;;;16.96;nan;99899.44;4849609;29;20818;-87
2022/04/22 10:11:57;;;;;;;16.67;2.77;;;;;;;16.88;nan;99886.94;4849345;29;20818;-87
2022/04/22 10:14:35;;;;;;;22.80;3.80;;;;;;;17.00;nan;99891.50;4849512;29;20485;-87
2022/04/22 10:17:05;;;;;;;18.47;2.50;;;;;;;17.03;nan;99896.50;4880441;29;20466;-87
2022/04/22 10:19:33;;;;;;;26.50;3.73;;;;;;;17.11;nan;99888.63;4864372;29;20541;-86
2022/04/22 10:22:02;;;;;;;24.53;4.40;;;;;;;17.14;nan;99866.00;4849420;29;20449;-87
2022/04/22 10:24:33;;;;;;;26.97;3.37;;;;;;;17.20;nan;99889.81;4849521;29;20458;-87
2022/04/22 10:27:03;;;;;;;27.87;3.80;;;;;;;17.20;nan;99873.25;4864819;29;20466;-86
2022/04/22 10:29:51;;;;;;;20.93;4.23;;;;;;;17.14;nan;99882.56;4867266;29;20446;-86
2022/04/22 10:32:20;;;;;;;14.60;3.50;;;;;;;17.01;nan;99863.63;4834061;29;20462;-87
2022/04/22 10:34:50;;;;;;;17.17;2.70;;;;;;;16.92;nan;99856.91;4833902;29;20875;-86
2022/04/22 10:37:25;;;;;;;20.03;3.40;;;;;;;16.86;nan;99866.22;4851817;29;20464;-86
2022/04/22 10:39:54;;;;;;;20.00;2.90;;;;;;;16.91;nan;99856.09;4831100;29;20459;-87
2022/04/22 10:42:50;;;;;;;22.03;2.60;;;;;;;17.14;nan;99860.47;4815834;29;20825;-86
2022/04/22 10:48:19;;;;;;;26.60;3.63;;;;;;;16.87;nan;99901.00;4835140;29;20455;-88
2022/04/22 10:51:00;;;;;;;16.03;5.10;;;;;;;16.51;nan;99941.84;4815673;29;20455;-87
2022/04/22 10:53:33;;;;;;;12.93;2.07;;;;;;;16.07;nan;99917.97;4850849;29;20474;-86
2022/04/22 10:56:26;;;;;;;9.87;1.80;;;;;;;15.77;nan;99919.13;4849402;29;20446;-87
2022/04/22 10:59:15;;;;;;;6.70;1.10;;;;;;;15.57;nan;99906.91;4879947;29;20486;-87
2022/04/22 11:01:44;;;;;;;13.67;1.77;;;;;;;15.49;nan;99910.84;4843985;29;20875;-86
2022/04/22 11:04:19;;;;;;;15.27;2.53;;;;;;;15.50;nan;99901.50;4844254;29;20455;-86
2022/04/22 11:06:47;;;;;;;11.83;1.60;;;;;;;15.60;nan;99878.84;4829304;29;20451;-87
2022/04/22 11:09:30;;;;;;;8.70;1.60;;;;;;;15.78;nan;99876.69;4858980;29;20459;-86
2022/04/22 11:11:59;;;;;;;12.60;2.00;;;;;;;15.99;nan;99879.78;4814608;29;20455;-86
2022/04/22 11:14:28;;;;;;;8.67;2.27;;;;;;;16.24;nan;99874.69;4844177;29;20463;-85
2022/04/22 11:17:35;;;;;;;9.77;1.97;;;;;;;16.64;nan;99862.59;4814502;29;20455;-87
2022/04/22 11:20:05;;;;;;;28.70;2.93;;;;;;;17.07;nan;99847.97;4862331;29;20442;-88
2022/04/22 11:22:53;;;;;;;15.17;3.20;;;;;;;17.61;nan;99835.00;4876815;29;20451;-88
2022/04/22 11:25:25;;;;;;;18.10;3.07;;;;;;;18.23;nan;99839.97;4863149;29;20526;-86
2022/04/22 11:27:57;;;;;;;20.43;3.43;;;;;;;18.66;nan;99829.72;4863281;29;20454;-87
2022/04/22 11:30:28;;;;;;;21.03;3.63;;;;;;;18.91;nan;99827.88;4848044;29;20461;-87
2022/04/22 11:33:21;;;;;;;22.83;3.03;;;;;;;18.91;nan;99827.06;4847971;29;20454;-87
2022/04/22 11:35:50;;;;;;;13.50;1.97;;;;;;;18.99;nan;99823.78;4862990;29;20457;-88
2022/04/22 11:38:18;;;;;;;18.70;2.80;;;;;;;18.99;nan;99812.69;4848042;29;20486;-88
2022/04/22 11:40:48;;;;;;;15.90;2.00;;;;;;;19.09;nan;99806.34;4878229;29;20454;-87
2022/04/22 11:43:18;;;;;;;11.40;1.83;;;;;;;19.28;nan;99805.56;4862440;29;21010;-88
2022/04/22 11:45:48;;;;;;;14.17;1.87;;;;;;;19.46;nan;99806.97;4863044;29;20502;-88
2022/04/22 11:48:22;;;;;;;12.63;2.53;;;;;;;19.62;nan;99805.09;4877786;29;20481;-88
2022/04/22 11:50:52;;;;;;;14.60;2.40;;;;;;;19.77;nan;99802.31;4878156;29;20446;-87
2022/04/22 11:53:24;;;;;;;23.03;2.53;;;;;;;19.89;nan;99786.22;4877606;29;20482;-87
2022/04/22 11:55:51;;;;;;;14.77;2.10;;;;;;;20.00;nan;99795.38;4847853;29;20451;-87
2022/04/22 11:58:27;;;;;;;10.50;2.60;;;;;;;20.08;nan;99785.63;4847602;29;20494;-88
2022/04/22 12:06:41;;;;;;;13.70;2.60;;;;;;;19.58;nan;99790.94;4878221;29;20458;-88
2022/04/22 12:09:11;;;;;;;16.47;2.33;;;;;;;19.45;nan;99796.16;4877770;29;20462;-88
2022/04/22 12:11:42;;;;;;;7.47;1.77;;;;;;;19.23;nan;99790.88;4879072;29;20442;-88
2022/04/22 12:14:11;;;;;;;10.40;2.03;;;;;;;19.16;nan;99791.13;4862892;29;20514;-88
2022/04/22 12:16:41;;;;;;;13.17;2.63;;;;;;;19.10;nan;99780.31;4862670;29;20465;-88
2022/04/22 12:19:11;;;;;;;9.33;1.90;;;;;;;19.27;nan;99791.97;4863080;29;21075;-87
2022/04/22 12:21:40;;;;;;;10.73;1.80;;;;;;;19.22;nan;99794.75;4862856;29;20879;-88
2022/04/22 12:24:08;;;;;;;5.23;2.30;;;;;;;19.21;nan;99805.00;4877474;29;20496;-87
2022/04/22 12:26:46;;;;;;;16.97;2.50;;;;;;;19.17;nan;99809.41;4849222;29;20968;-88
2022/04/22 12:29:16;;;;;;;10.67;2.27;;;;;;;19.13;nan;99791.66;4848619;29;20439;-88
2022/04/22 12:31:53;;;;;;;12.43;2.00;;;;;;;19.23;nan;99794.47;4863495;29;20488;-88
2022/04/22 12:34:34;;;;;;;12.40;1.83;;;;;;;19.36;nan;99800.59;4847615;29;20539;-88
2022/04/22 12:37:07;;;;;;;14.93;1.63;;;;;;;19.03;nan;99829.59;4845404;29;20912;-88
2022/04/22 12:39:40;;;;;;;6.77;1.10;;;;;;;18.29;nan;99855.47;4864762;29;20486;-88
2022/04/22 12:42:17;;;;;;;9.83;2.27;;;;;;;17.66;nan;99846.16;4847945;29;20450;-87
2022/04/22 12:53:28;;;;;;;7.17;1.50;;;;;;;16.80;nan;99806.50;4864751;29;21015;-88
2022/04/22 12:56:07;;;;;;;9.90;2.20;;;;;;;16.71;nan;99794.28;4836849;29;20804;-87
2022/04/22 12:58:56;;;;;;;10.00;1.27;;;;;;;16.68;nan;99819.63;4836350;29;20478;-88
2022/04/22 13:01:29;;;;;;;8.37;1.70;;;;;;;16.63;nan;99811.25;4850051;29;20792;-88
2022/04/22 13:03:57;;;;;;;7.10;1.77;;;;;;;16.40;nan;99831.63;4835568;29;20530;-89